createdAt,value
2023-04-26T00:00:26.720Z,23.13
2023-04-26T00:01:26.672Z,23.12
2023-04-26T00:02:26.762Z,23.13
2023-04-26T00:03:26.786Z,23.13
2023-04-26T00:04:26.887Z,23.12
2023-04-26T00:05:26.629Z,23.12
2023-04-26T00:06:26.536Z,23.12
2023-04-26T00:07:26.503Z,23.12
2023-04-26T00:08:26.500Z,23.12
2023-04-26T00:09:26.462Z,23.11
2023-04-26T00:10:26.439Z,23.12
2023-04-26T00:11:26.420Z,23.11
2023-04-26T00:12:26.391Z,23.11
2023-04-26T00:13:26.372Z,23.11
2023-04-26T00:14:26.347Z,23.10
2023-04-26T00:15:26.319Z,23.11
2023-04-26T00:16:26.377Z,23.10
2023-04-26T00:17:26.272Z,23.10
2023-04-26T00:18:26.254Z,23.10
2023-04-26T00:19:26.223Z,23.10
2023-04-26T00:20:26.215Z,23.10
2023-04-26T00:21:26.175Z,23.09
2023-04-26T00:22:26.152Z,23.10
2023-04-26T00:23:26.148Z,23.09
2023-04-26T00:24:26.111Z,23.10
2023-04-26T00:25:26.095Z,23.09
2023-04-26T00:26:26.074Z,23.09
2023-04-26T00:27:26.067Z,23.09
2023-04-26T00:28:26.046Z,23.10
2023-04-26T00:29:26.020Z,23.09
2023-04-26T00:30:25.991Z,23.09
2023-04-26T00:31:26.009Z,23.09
2023-04-26T00:32:26.036Z,23.09
2023-04-26T00:33:25.954Z,23.08
2023-04-26T00:34:25.924Z,23.09
2023-04-26T00:35:25.913Z,23.09
2023-04-26T00:36:25.865Z,23.08
2023-04-26T00:37:25.860Z,23.08
2023-04-26T00:38:25.835Z,23.09
2023-04-26T00:39:25.860Z,23.08
2023-04-26T00:40:25.798Z,23.08
2023-04-26T00:41:25.778Z,23.08
2023-04-26T00:42:25.760Z,23.08
2023-04-26T00:43:25.738Z,23.07
2023-04-26T00:44:25.740Z,23.08
2023-04-26T00:45:25.706Z,23.07
2023-04-26T00:46:25.787Z,23.07
2023-04-26T00:47:25.830Z,23.07
2023-04-26T00:48:25.647Z,23.07
2023-04-26T00:49:25.628Z,23.07
2023-04-26T00:50:25.629Z,23.07
2023-04-26T00:51:25.577Z,23.07
2023-04-26T00:52:25.559Z,23.07
2023-04-26T00:53:25.541Z,23.06
2023-04-26T00:54:25.513Z,23.06
2023-04-26T00:55:25.505Z,23.06
2023-04-26T00:56:25.474Z,23.06
2023-04-26T00:57:25.441Z,23.06
2023-04-26T00:58:25.417Z,23.06
2023-04-26T00:59:25.413Z,23.06
2023-04-26T01:00:25.376Z,23.06
2023-04-26T01:01:25.391Z,23.06
2023-04-26T01:02:25.390Z,23.05
2023-04-26T01:03:25.465Z,23.05
2023-04-26T01:04:25.400Z,23.06
2023-04-26T01:05:25.281Z,23.06
2023-04-26T01:06:25.244Z,23.05
2023-04-26T01:07:25.243Z,23.05
2023-04-26T01:08:25.204Z,23.05
2023-04-26T01:09:25.190Z,23.05
2023-04-26T01:10:25.168Z,23.05
2023-04-26T01:11:25.144Z,23.05
2023-04-26T01:12:25.138Z,23.04
2023-04-26T01:13:25.096Z,23.05
2023-04-26T01:14:25.096Z,23.04
2023-04-26T01:15:25.072Z,23.04
2023-04-26T01:16:25.090Z,23.04
2023-04-26T01:17:25.054Z,23.04
2023-04-26T01:18:24.994Z,23.04
2023-04-26T01:19:24.969Z,23.04
2023-04-26T01:20:24.969Z,23.04
2023-04-26T01:21:24.943Z,23.04
2023-04-26T01:22:24.918Z,23.04
2023-04-26T01:23:24.886Z,23.04
2023-04-26T01:24:24.852Z,23.04
2023-04-26T01:25:24.844Z,23.04
2023-04-26T01:26:24.826Z,23.03
2023-04-26T01:27:24.810Z,23.04
2023-04-26T01:28:24.793Z,23.03
2023-04-26T01:29:24.781Z,23.02
2023-04-26T01:30:24.744Z,23.03
2023-04-26T01:31:24.739Z,23.03
2023-04-26T01:32:24.729Z,23.03
2023-04-26T01:33:24.686Z,23.03
2023-04-26T01:34:24.670Z,23.02
2023-04-26T01:35:24.634Z,23.03
2023-04-26T01:36:24.619Z,23.02
2023-04-26T01:37:24.595Z,23.02
2023-04-26T01:38:24.588Z,23.03
2023-04-26T01:39:24.565Z,23.03
2023-04-26T01:40:24.556Z,23.02
2023-04-26T01:41:24.509Z,23.02
2023-04-26T01:42:24.486Z,23.03
2023-04-26T01:43:24.468Z,23.02
2023-04-26T01:44:24.437Z,23.02
2023-04-26T01:45:24.445Z,23.02
2023-04-26T01:46:24.440Z,23.01
2023-04-26T01:47:24.434Z,23.02
2023-04-26T01:48:24.371Z,23.01
2023-04-26T01:49:24.325Z,23.00
2023-04-26T01:50:24.270Z,23.01
2023-04-26T01:51:24.234Z,23.01
2023-04-26T01:52:24.218Z,23.01
2023-04-26T01:53:24.203Z,23.01
2023-04-26T01:54:24.179Z,23.01
2023-04-26T01:55:24.153Z,23.01
2023-04-26T01:56:24.149Z,23.01
2023-04-26T01:57:24.118Z,23.01
2023-04-26T01:58:24.100Z,23.01
2023-04-26T01:59:24.088Z,23.01
2023-04-26T02:00:24.075Z,23.01
2023-04-26T02:01:24.248Z,23.00
2023-04-26T02:02:24.067Z,22.99
2023-04-26T02:03:24.174Z,23.00
2023-04-26T02:04:23.979Z,23.00
2023-04-26T02:05:24.082Z,22.99
2023-04-26T02:06:23.934Z,23.00
2023-04-26T02:07:23.915Z,22.99
2023-04-26T02:08:23.882Z,22.99
2023-04-26T02:09:23.862Z,22.98
2023-04-26T02:10:23.850Z,22.98
2023-04-26T02:11:23.933Z,22.99
2023-04-26T02:12:23.808Z,22.99
2023-04-26T02:13:23.778Z,22.99
2023-04-26T02:14:23.749Z,22.98
2023-04-26T02:15:23.750Z,22.99
2023-04-26T02:16:23.778Z,22.98
2023-04-26T02:17:23.715Z,22.98
2023-04-26T02:18:23.682Z,22.98
2023-04-26T02:19:23.639Z,22.98
2023-04-26T02:20:23.619Z,22.98
2023-04-26T02:21:23.590Z,22.97
2023-04-26T02:22:23.563Z,22.98
2023-04-26T02:23:23.552Z,22.98
2023-04-26T02:24:23.528Z,22.98
2023-04-26T02:25:23.517Z,22.97
2023-04-26T02:26:23.496Z,22.98
2023-04-26T02:27:23.477Z,22.98
2023-04-26T02:28:23.444Z,22.98
2023-04-26T02:29:36.367Z,22.98
2023-04-26T02:30:24.323Z,22.97
2023-04-26T02:31:23.420Z,22.97
2023-04-26T02:32:23.190Z,22.98
2023-04-26T02:33:23.082Z,22.97
2023-04-26T02:34:22.985Z,22.97
2023-04-26T02:35:22.890Z,22.97
2023-04-26T02:36:22.805Z,22.97
2023-04-26T02:37:22.717Z,22.96
2023-04-26T02:38:22.651Z,22.97
2023-04-26T02:39:22.602Z,22.97
2023-04-26T02:40:22.562Z,22.97
2023-04-26T02:41:22.518Z,22.96
2023-04-26T02:42:22.485Z,22.97
2023-04-26T02:43:22.454Z,22.97
2023-04-26T02:44:22.420Z,22.96
2023-04-26T02:45:22.397Z,22.97
2023-04-26T02:46:22.398Z,22.96
2023-04-26T02:47:22.389Z,22.96
2023-04-26T02:48:22.337Z,22.96
2023-04-26T02:49:22.320Z,22.96
2023-04-26T02:50:22.304Z,22.96
2023-04-26T02:51:22.293Z,22.95
2023-04-26T02:52:22.276Z,22.96
2023-04-26T02:53:22.270Z,22.96
2023-04-26T02:54:22.256Z,22.96
2023-04-26T02:55:22.222Z,22.96
2023-04-26T02:56:22.214Z,22.95
2023-04-26T02:57:22.214Z,22.96
2023-04-26T02:58:22.191Z,22.95
2023-04-26T02:59:22.138Z,22.95
2023-04-26T03:00:22.121Z,22.95
2023-04-26T03:01:22.134Z,22.95
2023-04-26T03:02:22.186Z,22.95
2023-04-26T03:03:22.150Z,22.95
2023-04-26T03:04:22.081Z,22.95
2023-04-26T03:05:22.003Z,22.96
2023-04-26T03:06:21.988Z,22.97
2023-04-26T03:07:21.978Z,22.97
2023-04-26T03:08:21.942Z,22.97
2023-04-26T03:09:21.922Z,22.98
2023-04-26T03:10:21.888Z,22.97
2023-04-26T03:11:21.873Z,22.99
2023-04-26T03:12:21.855Z,22.99
2023-04-26T03:13:21.830Z,22.99
2023-04-26T03:14:21.810Z,23.01
2023-04-26T03:15:21.774Z,23.00
2023-04-26T03:16:21.809Z,23.01
2023-04-26T03:17:21.724Z,23.01
2023-04-26T03:18:21.686Z,23.02
2023-04-26T03:19:21.665Z,23.02
2023-04-26T03:20:21.640Z,23.03
2023-04-26T03:21:21.618Z,23.03
2023-04-26T03:22:21.602Z,23.03
2023-04-26T03:23:21.575Z,23.04
2023-04-26T03:24:21.542Z,23.04
2023-04-26T03:25:21.513Z,23.05
2023-04-26T03:26:21.487Z,23.04
2023-04-26T03:27:21.449Z,23.05
2023-04-26T03:28:21.466Z,23.06
2023-04-26T03:29:21.402Z,23.06
2023-04-26T03:30:21.412Z,23.06
2023-04-26T03:31:21.414Z,23.06
2023-04-26T03:32:21.328Z,23.07
2023-04-26T03:33:21.291Z,23.08
2023-04-26T03:34:21.272Z,23.08
2023-04-26T03:35:21.251Z,23.07
2023-04-26T03:36:21.216Z,23.08
2023-04-26T03:37:21.182Z,23.08
2023-04-26T03:38:21.154Z,23.09
2023-04-26T03:39:21.139Z,23.09
2023-04-26T03:40:21.103Z,23.09
2023-04-26T03:41:21.077Z,23.09
2023-04-26T03:42:21.054Z,23.10
2023-04-26T03:43:21.051Z,23.10
2023-04-26T03:44:21.075Z,23.10
2023-04-26T03:45:20.964Z,23.10
2023-04-26T03:46:20.968Z,23.10
2023-04-26T03:47:20.902Z,23.10
2023-04-26T03:48:20.882Z,23.11
2023-04-26T03:49:20.850Z,23.11
2023-04-26T03:50:20.826Z,23.11
2023-04-26T03:51:20.779Z,23.12
2023-04-26T03:52:20.745Z,23.11
2023-04-26T03:53:20.727Z,23.12
2023-04-26T03:54:20.697Z,23.13
2023-04-26T03:55:20.665Z,23.12
2023-04-26T03:56:20.638Z,23.13
2023-04-26T03:57:20.640Z,23.13
2023-04-26T03:58:20.566Z,23.14
2023-04-26T03:59:20.656Z,23.13
2023-04-26T04:00:20.510Z,23.13
2023-04-26T04:01:20.484Z,23.14
2023-04-26T04:02:20.478Z,23.14
2023-04-26T04:03:20.588Z,23.14
2023-04-26T04:04:20.568Z,23.14
2023-04-26T04:05:20.386Z,23.14
2023-04-26T04:06:20.295Z,23.14
2023-04-26T04:07:20.258Z,23.14
2023-04-26T04:08:20.219Z,23.14
2023-04-26T04:09:20.194Z,23.15
2023-04-26T04:10:20.159Z,23.14
2023-04-26T04:11:20.122Z,23.15
2023-04-26T04:12:20.093Z,23.14
2023-04-26T04:13:20.049Z,23.15
2023-04-26T04:14:20.030Z,23.15
2023-04-26T04:15:19.996Z,23.15
2023-04-26T04:16:19.998Z,23.16
2023-04-26T04:17:19.913Z,23.16
2023-04-26T04:18:19.885Z,23.16
2023-04-26T04:19:19.849Z,23.16
2023-04-26T04:20:19.815Z,23.16
2023-04-26T04:21:19.783Z,23.16
2023-04-26T04:22:19.744Z,23.16
2023-04-26T04:23:19.717Z,23.17
2023-04-26T04:24:19.672Z,23.16
2023-04-26T04:25:19.641Z,23.17
2023-04-26T04:26:19.669Z,23.17
2023-04-26T04:27:19.566Z,23.17
2023-04-26T04:28:19.519Z,23.18
2023-04-26T04:29:19.523Z,23.18
2023-04-26T04:30:19.429Z,23.17
2023-04-26T04:31:19.471Z,23.17
2023-04-26T04:32:19.329Z,23.18
2023-04-26T04:33:19.305Z,23.17
2023-04-26T04:34:19.228Z,23.18
2023-04-26T04:35:19.183Z,23.18
2023-04-26T04:36:19.134Z,23.18
2023-04-26T04:37:19.091Z,23.18
2023-04-26T04:38:19.038Z,23.18
2023-04-26T04:39:19.006Z,23.19
2023-04-26T04:40:18.965Z,23.18
2023-04-26T04:41:18.899Z,23.19
2023-04-26T04:42:18.857Z,23.19
2023-04-26T04:43:18.810Z,23.19
2023-04-26T04:44:18.769Z,23.19
2023-04-26T04:45:18.721Z,23.19
2023-04-26T04:46:18.699Z,23.18
2023-04-26T04:47:18.616Z,23.18
2023-04-26T04:48:18.620Z,23.18
2023-04-26T04:49:18.530Z,23.18
2023-04-26T04:50:18.497Z,23.18
2023-04-26T04:51:18.443Z,23.18
2023-04-26T04:52:19.039Z,23.19
2023-04-26T04:53:18.353Z,23.19
2023-04-26T04:54:18.302Z,23.19
2023-04-26T04:55:18.285Z,23.19
2023-04-26T04:56:18.234Z,23.19
2023-04-26T04:57:18.194Z,23.19
2023-04-26T04:58:18.145Z,23.19
2023-04-26T04:59:18.094Z,23.19
2023-04-26T05:00:18.045Z,23.19
2023-04-26T05:01:17.987Z,23.20
2023-04-26T05:02:18.084Z,23.20
2023-04-26T05:03:17.970Z,23.20
2023-04-26T05:04:18.084Z,23.20
2023-04-26T05:05:17.791Z,23.21
2023-04-26T05:06:17.717Z,23.20
2023-04-26T05:07:17.684Z,23.21
2023-04-26T05:08:17.665Z,23.21
2023-04-26T05:09:17.608Z,23.20
2023-04-26T05:10:17.554Z,23.21
2023-04-26T05:11:17.507Z,23.21
2023-04-26T05:12:17.465Z,23.21
2023-04-26T05:13:17.570Z,23.21
2023-04-26T05:14:17.375Z,23.21
2023-04-26T05:15:17.327Z,23.21
2023-04-26T05:16:17.342Z,23.21
2023-04-26T05:17:17.242Z,23.22
2023-04-26T05:18:17.206Z,23.22
2023-04-26T05:19:17.157Z,23.22
2023-04-26T05:20:17.110Z,23.23
2023-04-26T05:21:17.068Z,23.23
2023-04-26T05:22:17.033Z,23.23
2023-04-26T05:23:17.073Z,23.23
2023-04-26T05:24:16.931Z,23.24
2023-04-26T05:25:16.890Z,23.25
2023-04-26T05:26:16.848Z,23.25
2023-04-26T05:27:16.789Z,23.26
2023-04-26T05:28:16.746Z,23.27
2023-04-26T05:29:16.702Z,23.28
2023-04-26T05:30:16.679Z,23.29
2023-04-26T05:31:16.669Z,23.29
2023-04-26T05:32:16.573Z,23.29
2023-04-26T05:33:16.570Z,23.29
2023-04-26T05:34:16.485Z,23.29
2023-04-26T05:35:16.411Z,23.29
2023-04-26T05:36:16.362Z,23.29
2023-04-26T05:37:16.299Z,23.29
2023-04-26T05:38:16.251Z,23.28
2023-04-26T05:39:16.200Z,23.28
2023-04-26T05:40:16.158Z,23.28
2023-04-26T05:41:16.164Z,23.27
2023-04-26T05:42:17.840Z,23.27
2023-04-26T05:43:16.029Z,23.26
2023-04-26T05:44:15.988Z,23.26
2023-04-26T05:45:15.950Z,23.26
2023-04-26T05:46:15.941Z,23.26
2023-04-26T05:47:15.869Z,23.26
2023-04-26T05:48:15.888Z,23.28
2023-04-26T05:49:15.766Z,23.30
2023-04-26T05:50:15.720Z,23.33
2023-04-26T05:51:15.694Z,23.36
2023-04-26T05:52:15.616Z,23.38
2023-04-26T05:53:15.585Z,23.40
2023-04-26T05:54:15.527Z,23.43
2023-04-26T05:55:15.466Z,23.45
2023-04-26T05:56:15.465Z,23.46
2023-04-26T05:57:15.396Z,23.48
2023-04-26T05:58:15.293Z,23.49
2023-04-26T05:59:15.240Z,23.51
2023-04-26T06:00:15.223Z,23.52
2023-04-26T06:01:15.104Z,23.54
2023-04-26T06:02:15.093Z,23.55
2023-04-26T06:03:15.201Z,23.57
2023-04-26T06:04:15.196Z,23.57
2023-04-26T06:05:15.010Z,23.59
2023-04-26T06:06:14.732Z,23.61
2023-04-26T06:07:14.655Z,23.62
2023-04-26T06:08:14.579Z,23.63
2023-04-26T06:09:14.503Z,23.65
2023-04-26T06:10:14.422Z,23.61
2023-04-26T06:11:14.354Z,23.59
2023-04-26T06:12:14.284Z,23.60
2023-04-26T06:13:14.187Z,23.62
2023-04-26T06:14:23.522Z,23.64
2023-04-26T06:15:15.010Z,23.66
2023-04-26T06:16:13.921Z,23.67
2023-04-26T06:17:13.944Z,23.69
2023-04-26T06:18:13.733Z,23.70
2023-04-26T06:19:13.595Z,23.72
2023-04-26T06:20:13.504Z,23.72
2023-04-26T06:21:13.433Z,23.73
2023-04-26T06:22:13.323Z,23.75
2023-04-26T06:23:13.289Z,23.76
2023-04-26T06:24:13.099Z,23.78
2023-04-26T06:25:13.005Z,23.79
2023-04-26T06:26:12.888Z,23.81
2023-04-26T06:27:12.785Z,23.83
2023-04-26T06:28:12.700Z,23.86
2023-04-26T06:29:12.571Z,23.87
2023-04-26T06:30:12.470Z,23.89
2023-04-26T06:31:12.419Z,23.89
2023-04-26T06:32:12.265Z,23.89
2023-04-26T06:33:12.225Z,23.91
2023-04-26T06:34:12.072Z,23.94
2023-04-26T06:35:11.975Z,23.97
2023-04-26T06:36:11.866Z,24.00
2023-04-26T06:37:11.769Z,24.04
2023-04-26T06:38:11.661Z,24.07
2023-04-26T06:39:11.577Z,24.08
2023-04-26T06:40:11.559Z,24.07
2023-04-26T06:41:11.370Z,24.05
2023-04-26T06:42:13.033Z,24.01
2023-04-26T06:43:12.067Z,23.98
2023-04-26T06:44:11.197Z,23.96
2023-04-26T06:45:11.121Z,23.94
2023-04-26T06:46:11.052Z,23.92
2023-04-26T06:47:10.951Z,23.91
2023-04-26T06:48:10.907Z,23.89
2023-04-26T06:49:10.791Z,23.88
2023-04-26T06:50:10.720Z,23.87
2023-04-26T06:51:10.631Z,23.86
2023-04-26T06:52:10.562Z,23.85
2023-04-26T06:53:10.497Z,23.84
2023-04-26T06:54:10.395Z,23.83
2023-04-26T06:55:10.327Z,23.82
2023-04-26T06:56:10.226Z,23.81
2023-04-26T06:57:10.138Z,23.81
2023-04-26T06:58:10.055Z,23.80
2023-04-26T06:59:09.965Z,23.79
2023-04-26T07:00:09.916Z,23.78
2023-04-26T07:01:09.827Z,23.77
2023-04-26T07:02:09.771Z,23.77
2023-04-26T07:03:09.969Z,23.77
2023-04-26T07:04:09.767Z,23.76
2023-04-26T07:05:09.593Z,23.75
2023-04-26T07:06:09.406Z,23.75
2023-04-26T07:07:10.513Z,23.74
2023-04-26T07:08:09.254Z,23.74
2023-04-26T07:09:09.132Z,23.73
2023-04-26T07:10:09.615Z,23.73
2023-04-26T07:11:08.996Z,23.72
2023-04-26T07:12:08.826Z,23.73
2023-04-26T07:13:09.688Z,23.73
2023-04-26T07:14:08.639Z,23.74
2023-04-26T07:15:08.550Z,23.77
2023-04-26T07:16:08.683Z,23.79
2023-04-26T07:17:08.335Z,23.81
2023-04-26T07:18:08.259Z,23.84
2023-04-26T07:19:08.122Z,23.86
2023-04-26T07:20:08.042Z,23.88
2023-04-26T07:21:07.930Z,23.88
2023-04-26T07:22:07.832Z,23.86
2023-04-26T07:23:07.715Z,23.85
2023-04-26T07:24:07.628Z,23.83
2023-04-26T07:25:07.534Z,23.82
2023-04-26T07:26:07.419Z,23.80
2023-04-26T07:27:07.316Z,23.79
2023-04-26T07:28:07.203Z,23.78
2023-04-26T07:29:07.644Z,23.78
2023-04-26T07:30:07.000Z,23.77
2023-04-26T07:31:08.744Z,23.78
2023-04-26T07:32:06.837Z,23.76
2023-04-26T07:33:06.792Z,23.74
2023-04-26T07:34:06.613Z,23.74
2023-04-26T07:35:06.504Z,23.74
2023-04-26T07:36:06.394Z,23.73
2023-04-26T07:37:06.295Z,23.74
2023-04-26T07:38:07.131Z,23.73
2023-04-26T07:39:06.111Z,23.74
2023-04-26T07:40:06.010Z,23.73
2023-04-26T07:41:05.898Z,23.73
2023-04-26T07:42:05.801Z,23.72
2023-04-26T07:43:05.695Z,23.73
2023-04-26T07:44:05.607Z,23.72
2023-04-26T07:45:05.523Z,23.72
2023-04-26T07:46:05.422Z,23.72
2023-04-26T07:47:05.313Z,23.71
2023-04-26T07:48:06.171Z,23.70
2023-04-26T07:49:05.110Z,23.69
2023-04-26T07:50:05.016Z,23.69
2023-04-26T07:51:04.925Z,23.69
2023-04-26T07:52:04.808Z,23.68
2023-04-26T07:53:04.721Z,23.68
2023-04-26T07:54:04.621Z,23.68
2023-04-26T07:55:04.534Z,23.67
2023-04-26T07:56:04.444Z,23.68
2023-04-26T07:57:04.347Z,23.67
2023-04-26T07:58:04.244Z,23.67
2023-04-26T07:59:04.185Z,23.67
2023-04-26T08:00:04.034Z,23.67
2023-04-26T08:01:03.939Z,23.67
2023-04-26T08:02:03.855Z,23.67
2023-04-26T08:03:03.901Z,23.66
2023-04-26T08:04:03.848Z,23.66
2023-04-26T08:05:04.264Z,23.64
2023-04-26T08:06:03.549Z,23.63
2023-04-26T08:07:03.343Z,23.62
2023-04-26T08:08:03.230Z,23.61
2023-04-26T08:09:03.125Z,23.61
2023-04-26T08:10:03.039Z,23.60
2023-04-26T08:11:02.923Z,23.58
2023-04-26T08:12:02.866Z,23.58
2023-04-26T08:13:02.725Z,23.57
2023-04-26T08:14:02.632Z,23.58
2023-04-26T08:15:02.540Z,23.58
2023-04-26T08:16:03.155Z,23.58
2023-04-26T08:17:02.414Z,23.59
2023-04-26T08:18:02.271Z,23.60
2023-04-26T08:19:02.138Z,23.61
2023-04-26T08:20:02.036Z,23.62
2023-04-26T08:21:01.934Z,23.66
2023-04-26T08:22:01.824Z,23.68
2023-04-26T08:23:01.726Z,23.69
2023-04-26T08:24:01.617Z,23.71
2023-04-26T08:25:01.514Z,23.71
2023-04-26T08:26:01.426Z,23.71
2023-04-26T08:27:01.318Z,23.70
2023-04-26T08:28:01.219Z,23.70
2023-04-26T08:29:01.108Z,23.71
2023-04-26T08:30:01.131Z,23.75
2023-04-26T08:31:01.686Z,23.76
2023-04-26T08:32:00.915Z,23.79
2023-04-26T08:33:00.858Z,23.86
2023-04-26T08:34:00.737Z,23.89
2023-04-26T08:35:00.641Z,23.94
2023-04-26T08:36:00.552Z,23.97
2023-04-26T08:37:00.524Z,24.00
2023-04-26T08:38:00.519Z,24.03
2023-04-26T08:39:00.455Z,24.10
2023-04-26T08:40:00.398Z,24.15
2023-04-26T08:41:00.385Z,24.19
2023-04-26T08:42:00.320Z,24.24
2023-04-26T08:43:00.260Z,24.29
2023-04-26T08:44:00.210Z,24.32
2023-04-26T08:45:00.164Z,24.34
2023-04-26T08:46:00.220Z,24.38
2023-04-26T08:47:00.143Z,24.41
2023-04-26T08:48:00.692Z,24.43
2023-04-26T08:48:59.881Z,24.45
2023-04-26T08:49:59.874Z,24.47
2023-04-26T08:50:59.751Z,24.47
2023-04-26T08:51:59.671Z,24.49
2023-04-26T08:52:59.607Z,24.49
2023-04-26T08:53:59.522Z,24.49
2023-04-26T08:54:59.464Z,24.52
2023-04-26T08:55:59.388Z,24.55
2023-04-26T08:56:59.284Z,24.58
2023-04-26T08:57:59.195Z,24.60
2023-04-26T08:58:59.110Z,24.62
2023-04-26T08:59:59.029Z,24.63
2023-04-26T09:00:58.944Z,24.66
2023-04-26T09:01:58.901Z,24.67
2023-04-26T09:02:58.864Z,24.68
2023-04-26T09:03:58.937Z,24.70
2023-04-26T09:04:58.739Z,24.71
2023-04-26T09:05:58.460Z,24.73
2023-04-26T09:06:58.360Z,24.74
2023-04-26T09:07:58.245Z,24.76
2023-04-26T09:08:58.153Z,24.78
2023-04-26T09:09:58.052Z,24.79
2023-04-26T09:10:57.975Z,24.80
2023-04-26T09:11:57.934Z,24.82
2023-04-26T09:12:57.739Z,24.83
2023-04-26T09:13:57.754Z,24.83
2023-04-26T09:14:57.511Z,24.84
2023-04-26T09:15:57.505Z,24.85
2023-04-26T09:16:57.349Z,24.88
2023-04-26T09:17:57.244Z,24.90
2023-04-26T09:18:57.165Z,24.92
2023-04-26T09:19:57.042Z,24.93
2023-04-26T09:20:56.913Z,24.89
2023-04-26T09:21:56.816Z,24.90
2023-04-26T09:22:56.728Z,24.88
2023-04-26T09:23:56.704Z,24.88
2023-04-26T09:24:56.540Z,24.90
2023-04-26T09:25:56.453Z,24.93
2023-04-26T09:26:56.362Z,24.94
2023-04-26T09:27:56.279Z,24.96
2023-04-26T09:28:56.166Z,24.98
2023-04-26T09:29:56.078Z,25.00
2023-04-26T09:30:56.032Z,25.00
2023-04-26T09:31:55.934Z,25.03
2023-04-26T09:32:55.842Z,25.03
2023-04-26T09:34:02.321Z,25.03
2023-04-26T09:34:55.568Z,25.02
2023-04-26T09:35:55.684Z,25.05
2023-04-26T09:36:55.333Z,25.06
2023-04-26T09:38:00.241Z,25.07
2023-04-26T09:38:56.110Z,25.07
2023-04-26T09:39:55.012Z,25.06
2023-04-26T09:40:55.693Z,25.07
2023-04-26T09:41:54.775Z,25.09
2023-04-26T09:42:54.673Z,25.09
2023-04-26T09:43:54.567Z,25.10
2023-04-26T09:44:54.453Z,25.11
2023-04-26T09:45:54.325Z,25.12
2023-04-26T09:46:54.270Z,25.13
2023-04-26T09:47:54.131Z,25.13
2023-04-26T09:48:54.181Z,25.14
2023-04-26T09:49:54.040Z,25.15
2023-04-26T09:50:53.824Z,25.15
2023-04-26T09:51:53.673Z,25.15
2023-04-26T09:52:53.550Z,25.16
2023-04-26T09:53:55.609Z,25.16
2023-04-26T09:54:53.337Z,25.17
2023-04-26T09:55:53.206Z,25.18
2023-04-26T09:56:53.097Z,25.17
2023-04-26T09:57:52.981Z,25.17
2023-04-26T09:58:53.224Z,25.17
2023-04-26T09:59:54.993Z,25.18
2023-04-26T10:00:52.752Z,25.20
2023-04-26T10:01:52.517Z,25.22
2023-04-26T10:02:52.514Z,25.23
2023-04-26T10:03:52.447Z,25.24
2023-04-26T10:04:52.228Z,25.25
2023-04-26T10:05:52.089Z,25.25
2023-04-26T10:06:51.981Z,25.25
2023-04-26T10:07:51.881Z,25.25
2023-04-26T10:08:51.938Z,25.24
2023-04-26T10:09:51.672Z,25.23
2023-04-26T10:10:51.554Z,25.23
2023-04-26T10:11:51.481Z,25.24
2023-04-26T10:12:51.328Z,25.24
2023-04-26T10:13:51.236Z,25.26
2023-04-26T10:14:51.109Z,25.27
2023-04-26T10:15:51.012Z,25.27
2023-04-26T10:16:50.923Z,25.27
2023-04-26T10:17:52.138Z,25.27
2023-04-26T10:18:51.086Z,25.27
2023-04-26T10:19:50.608Z,25.28
2023-04-26T10:20:50.443Z,25.27
2023-04-26T10:21:50.325Z,25.28
2023-04-26T10:22:50.238Z,25.27
2023-04-26T10:23:50.113Z,25.28
2023-04-26T10:24:49.998Z,25.27
2023-04-26T10:25:49.936Z,25.27
2023-04-26T10:26:49.854Z,25.27
2023-04-26T10:27:49.661Z,25.25
2023-04-26T10:28:51.789Z,25.26
2023-04-26T10:29:49.451Z,25.24
2023-04-26T10:30:49.325Z,25.24
2023-04-26T10:31:49.292Z,25.23
2023-04-26T10:32:49.147Z,25.23
2023-04-26T10:33:49.001Z,25.23
2023-04-26T10:34:48.890Z,25.22
2023-04-26T10:35:48.774Z,25.21
2023-04-26T10:36:48.652Z,25.20
2023-04-26T10:37:48.565Z,25.20
2023-04-26T10:38:48.449Z,25.20
2023-04-26T10:39:48.327Z,25.19
2023-04-26T10:40:48.204Z,25.18
2023-04-26T10:41:48.094Z,25.17
2023-04-26T10:42:47.968Z,25.17
2023-04-26T10:43:47.856Z,25.16
2023-04-26T10:44:47.740Z,25.15
2023-04-26T10:45:47.647Z,25.15
2023-04-26T10:46:47.511Z,25.15
2023-04-26T10:47:47.486Z,25.14
2023-04-26T10:48:47.290Z,25.13
2023-04-26T10:49:47.190Z,25.12
2023-04-26T10:50:47.103Z,25.11
2023-04-26T10:51:46.981Z,25.09
2023-04-26T10:52:46.882Z,25.08
2023-04-26T10:53:46.809Z,25.06
2023-04-26T10:54:46.693Z,25.06
2023-04-26T10:55:46.593Z,25.06
2023-04-26T10:56:46.494Z,25.04
2023-04-26T10:57:46.395Z,25.02
2023-04-26T10:58:46.310Z,25.02
2023-04-26T10:59:54.247Z,25.02
2023-04-26T11:00:47.075Z,25.01
2023-04-26T11:01:46.098Z,25.01
2023-04-26T11:02:45.933Z,25.01
2023-04-26T11:03:45.871Z,25.02
2023-04-26T11:04:45.644Z,25.01
2023-04-26T11:05:45.511Z,25.01
2023-04-26T11:06:45.395Z,25.00
2023-04-26T11:07:45.279Z,24.99
2023-04-26T11:08:45.168Z,24.99
2023-04-26T11:09:45.056Z,24.98
2023-04-26T11:10:44.936Z,24.97
2023-04-26T11:11:44.857Z,24.97
2023-04-26T11:12:44.724Z,24.97
2023-04-26T11:13:44.602Z,24.94
2023-04-26T11:14:44.501Z,24.91
2023-04-26T11:15:44.482Z,24.88
2023-04-26T11:16:44.418Z,24.87
2023-04-26T11:17:44.235Z,24.85
2023-04-26T11:18:44.097Z,24.84
2023-04-26T11:19:43.984Z,24.82
2023-04-26T11:20:43.883Z,24.83
2023-04-26T11:21:43.786Z,24.83
2023-04-26T11:22:43.709Z,24.83
2023-04-26T11:23:43.573Z,24.83
2023-04-26T11:24:43.483Z,24.83
2023-04-26T11:25:43.409Z,24.82
2023-04-26T11:26:43.386Z,24.82
2023-04-26T11:27:43.269Z,24.81
2023-04-26T11:28:43.187Z,24.81
2023-04-26T11:29:43.114Z,24.80
2023-04-26T11:30:43.034Z,24.81
2023-04-26T11:31:42.985Z,24.80
2023-04-26T11:32:42.927Z,24.79
2023-04-26T11:33:42.817Z,24.80
2023-04-26T11:34:42.738Z,24.79
2023-04-26T11:35:42.662Z,24.78
2023-04-26T11:36:42.614Z,24.78
2023-04-26T11:37:42.510Z,24.77
2023-04-26T11:38:42.435Z,24.77
2023-04-26T11:39:42.378Z,24.76
2023-04-26T11:40:42.307Z,24.77
2023-04-26T11:41:42.236Z,24.76
2023-04-26T11:42:42.249Z,24.75
2023-04-26T11:43:42.175Z,24.73
2023-04-26T11:44:42.042Z,24.73
2023-04-26T11:45:41.949Z,24.73
2023-04-26T11:46:41.964Z,24.74
2023-04-26T11:47:41.839Z,24.73
2023-04-26T11:48:41.761Z,24.73
2023-04-26T11:49:41.711Z,24.72
2023-04-26T11:50:41.631Z,24.72
2023-04-26T11:51:41.569Z,24.71
2023-04-26T11:52:41.498Z,24.70
2023-04-26T11:53:41.431Z,24.70
2023-04-26T11:54:41.364Z,24.69
2023-04-26T11:55:41.298Z,24.69
2023-04-26T11:56:41.232Z,24.69
2023-04-26T11:57:41.169Z,24.68
2023-04-26T11:58:41.147Z,24.68
2023-04-26T11:59:41.038Z,24.67
2023-04-26T12:00:40.974Z,24.66
2023-04-26T12:01:40.947Z,24.66
2023-04-26T12:02:41.020Z,24.66
2023-04-26T12:03:40.954Z,24.65
2023-04-26T12:04:40.970Z,24.64
2023-04-26T12:05:40.724Z,24.63
2023-04-26T12:06:40.617Z,24.62
2023-04-26T12:07:40.555Z,24.60
2023-04-26T12:08:40.499Z,24.59
2023-04-26T12:09:40.462Z,24.59
2023-04-26T12:10:40.414Z,24.57
2023-04-26T12:11:40.334Z,24.57
2023-04-26T12:12:40.284Z,24.56
2023-04-26T12:13:40.329Z,24.55
2023-04-26T12:14:40.181Z,24.53
2023-04-26T12:15:40.118Z,24.53
2023-04-26T12:16:40.076Z,24.53
2023-04-26T12:17:40.044Z,24.52
2023-04-26T12:18:39.975Z,24.52
2023-04-26T12:19:39.904Z,24.52
2023-04-26T12:20:39.853Z,24.51
2023-04-26T12:21:39.779Z,24.50
2023-04-26T12:22:39.717Z,24.50
2023-04-26T12:23:39.654Z,24.49
2023-04-26T12:24:39.604Z,24.48
2023-04-26T12:25:39.602Z,24.48
2023-04-26T12:26:39.570Z,24.47
2023-04-26T12:27:39.492Z,24.48
2023-04-26T12:28:39.425Z,24.48
2023-04-26T12:29:39.376Z,24.47
2023-04-26T12:30:39.335Z,24.47
2023-04-26T12:31:39.367Z,24.47
2023-04-26T12:32:39.274Z,24.46
2023-04-26T12:33:39.251Z,24.47
2023-04-26T12:34:39.154Z,24.47
2023-04-26T12:35:39.115Z,24.47
2023-04-26T12:36:39.074Z,24.47
2023-04-26T12:37:39.028Z,24.46
2023-04-26T12:38:38.992Z,24.46
2023-04-26T12:39:38.942Z,24.46
2023-04-26T12:40:38.893Z,24.46
2023-04-26T12:41:38.842Z,24.44
2023-04-26T12:42:38.783Z,24.45
2023-04-26T12:43:38.746Z,24.44
2023-04-26T12:44:38.696Z,24.44
2023-04-26T12:45:38.723Z,24.43
2023-04-26T12:46:38.766Z,24.43
2023-04-26T12:47:38.632Z,24.42
2023-04-26T12:48:38.542Z,24.42
2023-04-26T12:49:38.495Z,24.41
2023-04-26T12:50:38.458Z,24.42
2023-04-26T12:51:38.412Z,24.41